Beighton, United Kingdom
Current Conditions -  °F | °C
As of 2:50 PM on Sunday 21 Dec 2014 (Local Time) from EGCN Reporting Station
Clear Clear  
Wind Chill: 12°   Ceiling: Unl
Heat Index: 12°   Visibility: 6mi
Dew Point:   Wind: 25mph
Humidity: 72%   Direction: 230°SW
Pressure: 30.06"   Gusts: NA
Location:  53.33°N, 1.33°W
Report Text: EGCN 211450Z 23022KT CAVOK 12/07 Q1018
Loading
Personal Weather Stations






























Interactive Weather Map New forecast layout! Learn more

10-Day Weather Forecast

Advertisements
Track Severe Weather on mobile